LIMELIRQ

Guest
Details From LIME - Bergamo Orio Al Serio
To LIRQ - Firenze
Flight Number -
Tags generated
Created
Modified
Stats Distance 129 nm / 239 km
Max Altitude 9,400 ft / 2,865 m
Waypoints 3
Social Downloads 3
Likes 0
Share VATSIM

Download

Looking for another format? Having issues loading an existing format? Contact us
Advertisement - Login to hide

Notes

Basic altitude profile: - Ascent Rate: 2500ft/min - Ascent Speed: 250kts - Cruise Altitude: 35000ft - Cruise Speed: 420kts - Descent Rate: 1500ft/min - Descent Speed: 250kts

Route

LIME NERBO LIRQ

ID Type Via Altitude Latitude Longitude Leg Dist Tot Dist Heading (true) Name
O LIME APT - 0 ft / 0 m 45.67200˚ 9.70689˚ - 0 nm - Bergamo Orio Al Serio
NERBO FIX - 9,400 ft / 2,865 m 45.28333˚ 10.00000˚ 26 nm 26 nm 152° / 152° -
O LIRQ APT - 0 ft / 0 m 43.80998˚ 11.20512˚ 102 nm 128 nm 149° / 150° Firenze

Altitude Profile

Advertisement - Login to hide

LIME

Details ICAO LIME (BGY)
Name Bergamo Orio Al Serio
Region Italy
Timezone Europe/Rome (UTC+1.0)
Stats Elevation 779 ft / 237 m (AMSL)
Location 45.672004° 9.706892°
Runways 2
Magnetic Variation 2.602° E

METAR

LIME 112050Z 12004KT 090V170 2000 -RA BR BKN003 03/02 Q0994 NOSIG

Decode

TAF

TAF LIME 111700Z 1118/1218 VRB05KT 1500 RA OVC012 BECMG 1120/1122 0600 FZFG BKN005 BECMG 1206/1209 6000 SCT020 BKN070

Decode

Departure Runways

ID Width Length Bearing (true) Bearing (mag) Surface Threshold Offset Overrun Length
10 148 ft / 45 m 9,897 ft / 3,017 m 104.89° 102.29° Asphalt 312 ft / 95 m 0 ft / 0 m
12 59 ft / 18 m 2,665 ft / 812 m 121.47° 118.87° Asphalt 197 ft / 60 m 0 ft / 0 m
28 148 ft / 45 m 9,897 ft / 3,017 m 284.91° 282.31° Asphalt 712 ft / 217 m 0 ft / 0 m
30 59 ft / 18 m 2,665 ft / 812 m 301.48° 298.88° Asphalt 312 ft / 95 m 0 ft / 0 m

LIRQ

Details ICAO LIRQ (FLR)
Name Firenze
Region Italy
Timezone Europe/Rome (UTC+1.0)
Stats Elevation 142 ft / 43 m (AMSL)
Location 43.809984° 11.205118°
Runways 1
Magnetic Variation 2.874° E

METAR

LIRQ 112050Z 14009KT 100V180 9999 FEW035 16/10 Q1000

Decode

TAF

TAF LIRQ 111700Z 1118/1218 24015G25KT 9999 SCT030 BECMG 1122/1124 24007KT TEMPO 1200/1212 4000 RA TEMPO 1215/1218 SHRA

Decode

Destination Runways

ID Width Length Bearing (true) Bearing (mag) Surface Threshold Offset Overrun Length
05 98 ft / 30 m 5,420 ft / 1,652 m 48.52° 45.65° Asphalt 492 ft / 150 m 0 ft / 0 m
23 98 ft / 30 m 5,420 ft / 1,652 m 228.53° 225.66° Asphalt 2,287 ft / 697 m 0 ft / 0 m

Approach Navaids

Runway Type Ident Frequency Range Bearing (true) Bearing (mag) Slope Elevation
05 Localiser IFZ 110.30 MHz 18 nm / 33 km 48.10° 45.23° - 131 ft / 40 m (AMSL)
05 Glidescope IFZ 110.30 MHz 10 nm / 19 km 47.00° 44.13° 3.00° 144 ft / 44 m (AMSL)
05 DME IFZ 110.30 MHz 18 nm / 33 km - - - 144 ft / 44 m (AMSL)

Popular Alternatives